createdAt,value
2022-12-11T00:01:11.746Z,0.10
2022-12-11T00:03:40.531Z,0.10
2022-12-11T00:06:09.737Z,0.10
2022-12-11T00:08:38.896Z,0.10
2022-12-11T00:11:09.877Z,0.10
2022-12-11T00:13:39.851Z,0.00
2022-12-11T00:16:08.861Z,0.00
2022-12-11T00:18:37.699Z,0.00
2022-12-11T00:21:07.853Z,0.00
2022-12-11T00:23:37.567Z,0.00
2022-12-11T00:26:08.186Z,0.00
2022-12-11T00:28:37.321Z,0.00
2022-12-11T00:31:08.257Z,-0.10
2022-12-11T00:33:36.807Z,0.00
2022-12-11T00:36:05.719Z,0.00
2022-12-11T00:38:34.270Z,0.00
2022-12-11T00:41:03.151Z,0.00
2022-12-11T00:43:32.097Z,0.00
2022-12-11T00:46:00.682Z,0.10
2022-12-11T00:48:30.709Z,0.20
2022-12-11T00:50:59.294Z,0.20
2022-12-11T00:53:27.888Z,0.20
2022-12-11T00:55:56.521Z,0.10
2022-12-11T00:58:25.389Z,0.10
2022-12-11T01:00:55.140Z,0.00
2022-12-11T01:03:23.628Z,0.00
2022-12-11T01:05:57.007Z,0.00
2022-12-11T01:08:25.469Z,0.00
2022-12-11T01:11:02.045Z,0.00
2022-12-11T01:13:30.856Z,0.00
2022-12-11T01:15:59.511Z,0.00
2022-12-11T01:18:28.528Z,0.00
2022-12-11T01:20:58.518Z,0.00
2022-12-11T01:23:27.067Z,0.00
2022-12-11T01:25:55.577Z,0.00
2022-12-11T01:28:24.057Z,0.00
2022-12-11T01:30:52.537Z,0.00
2022-12-11T01:33:21.128Z,0.10
2022-12-11T01:35:49.761Z,0.10
2022-12-11T01:38:20.347Z,0.10
2022-12-11T01:40:49.407Z,0.00
2022-12-11T01:43:17.898Z,0.00
2022-12-11T01:45:48.733Z,0.00
2022-12-11T01:48:21.076Z,-0.10
2022-12-11T01:50:52.016Z,-0.10
2022-12-11T01:53:26.397Z,-0.10
2022-12-11T01:55:57.285Z,-0.20
2022-12-11T01:58:28.907Z,-0.20
2022-12-11T02:00:58.456Z,-0.30
2022-12-11T02:03:26.966Z,-0.30
2022-12-11T02:05:58.295Z,-0.30
2022-12-11T02:08:28.432Z,-0.30
2022-12-11T02:11:04.776Z,-0.30
2022-12-11T02:13:40.386Z,-0.30
2022-12-11T02:16:17.269Z,-0.40
2022-12-11T02:18:55.214Z,-0.40
2022-12-11T02:21:29.387Z,-0.30
2022-12-11T02:24:28.647Z,-0.30
2022-12-11T02:27:15.327Z,-0.30
2022-12-11T02:29:51.736Z,-0.30
2022-12-11T02:32:24.956Z,-0.30
2022-12-11T02:34:59.536Z,-0.30
2022-12-11T02:37:31.277Z,-0.30
2022-12-11T02:40:00.182Z,-0.30
2022-12-11T02:42:32.626Z,-0.30
2022-12-11T02:45:05.650Z,-0.30
2022-12-11T02:47:34.697Z,-0.30
2022-12-11T02:50:05.006Z,-0.30
2022-12-11T02:52:34.786Z,-0.30
2022-12-11T02:55:07.841Z,-0.30
2022-12-11T02:57:41.768Z,-0.30
2022-12-11T03:00:13.217Z,-0.20
2022-12-11T03:02:42.571Z,-0.30
2022-12-11T03:05:12.612Z,-0.20
2022-12-11T03:07:44.026Z,-0.20
2022-12-11T03:10:16.187Z,-0.20
2022-12-11T03:12:53.166Z,-0.20
2022-12-11T03:15:30.381Z,-0.20
2022-12-11T03:18:07.208Z,-0.20
2022-12-11T03:20:40.998Z,-0.20
2022-12-11T03:23:19.598Z,-0.20
2022-12-11T03:25:54.788Z,-0.20
2022-12-11T03:28:28.717Z,-0.10
2022-12-11T03:30:59.497Z,-0.10
2022-12-11T03:33:34.957Z,-0.20
2022-12-11T03:36:08.268Z,-0.20
2022-12-11T03:38:42.839Z,-0.20
2022-12-11T03:41:13.787Z,-0.10
2022-12-11T03:43:42.887Z,-0.10
2022-12-11T03:46:15.010Z,-0.10
2022-12-11T03:48:46.117Z,-0.10
2022-12-11T03:51:15.268Z,-0.10
2022-12-11T03:53:45.247Z,-0.10
2022-12-11T03:56:16.358Z,-0.10
2022-12-11T03:58:44.887Z,-0.10
2022-12-11T04:01:14.851Z,-0.20
2022-12-11T04:03:43.374Z,-0.20
2022-12-11T04:06:11.883Z,-0.20
2022-12-11T04:08:40.404Z,-0.20
2022-12-11T04:11:26.161Z,-0.20
2022-12-11T04:14:08.442Z,-0.20
2022-12-11T04:16:38.393Z,-0.20
2022-12-11T04:19:24.690Z,-0.20
2022-12-11T04:22:11.000Z,-0.20
2022-12-11T04:24:39.852Z,-0.20
2022-12-11T04:27:09.010Z,-0.20
2022-12-11T04:29:37.483Z,-0.20
2022-12-11T04:32:07.902Z,-0.20
2022-12-11T04:34:36.374Z,-0.20
2022-12-11T04:37:04.973Z,-0.20
2022-12-11T04:39:33.461Z,-0.20
2022-12-11T04:42:01.914Z,-0.20
2022-12-11T04:44:30.391Z,-0.20
2022-12-11T04:46:58.902Z,-0.20
2022-12-11T04:49:28.866Z,-0.20
2022-12-11T04:51:57.321Z,-0.20
2022-12-11T04:54:25.762Z,-0.20
2022-12-11T04:56:54.182Z,-0.20
2022-12-11T04:59:22.681Z,-0.20
2022-12-11T05:01:51.278Z,-0.20
2022-12-11T05:04:19.860Z,-0.20
2022-12-11T05:06:50.771Z,-0.20
2022-12-11T05:09:19.762Z,-0.20
2022-12-11T05:11:48.251Z,-0.20
2022-12-11T05:14:16.770Z,-0.20
2022-12-11T05:16:45.693Z,-0.20
2022-12-11T05:19:14.542Z,-0.20
2022-12-11T05:21:43.042Z,-0.20
2022-12-11T05:24:13.035Z,-0.20
2022-12-11T05:26:41.546Z,-0.20
2022-12-11T05:29:09.971Z,-0.20
2022-12-11T05:31:38.551Z,-0.20
2022-12-11T05:34:07.113Z,-0.20
2022-12-11T05:36:36.221Z,-0.20
2022-12-11T05:39:06.074Z,-0.20
2022-12-11T05:41:36.054Z,-0.10
2022-12-11T05:44:04.868Z,-0.10
2022-12-11T05:46:33.365Z,-0.10
2022-12-11T05:49:03.021Z,-0.10
2022-12-11T05:51:34.382Z,-0.10
2022-12-11T05:54:03.291Z,-0.20
2022-12-11T05:56:34.181Z,-0.20
2022-12-11T05:59:06.261Z,-0.20
2022-12-11T06:01:36.414Z,-0.20
2022-12-11T06:04:05.583Z,-0.30
2022-12-11T06:06:34.851Z,-0.20
2022-12-11T06:09:04.725Z,-0.20
2022-12-11T06:11:34.925Z,-0.30
2022-12-11T06:14:06.073Z,-0.30
2022-12-11T06:16:34.849Z,-0.30
2022-12-11T06:19:03.485Z,-0.30
2022-12-11T06:21:34.421Z,-0.30
2022-12-11T06:24:05.824Z,-0.20
2022-12-11T06:26:34.472Z,-0.20
2022-12-11T06:29:08.995Z,-0.20
2022-12-11T06:31:39.410Z,-0.30
2022-12-11T06:34:08.052Z,-0.30
2022-12-11T06:36:37.003Z,-0.20
2022-12-11T06:39:05.610Z,-0.30
2022-12-11T06:41:34.180Z,-0.20
2022-12-11T06:44:02.722Z,-0.30
2022-12-11T06:46:32.651Z,-0.20
2022-12-11T06:49:01.342Z,-0.20
2022-12-11T06:51:29.920Z,-0.30
2022-12-11T06:53:58.723Z,-0.30
2022-12-11T06:56:27.464Z,-0.30
2022-12-11T06:58:57.274Z,-0.30
2022-12-11T07:01:27.959Z,-0.30
2022-12-11T07:03:59.284Z,-0.30
2022-12-11T07:06:29.437Z,-0.30
2022-12-11T07:08:58.441Z,-0.20
2022-12-11T07:11:26.903Z,-0.20
2022-12-11T07:13:55.393Z,-0.30
2022-12-11T07:16:23.944Z,-0.30
2022-12-11T07:18:52.972Z,-0.30
2022-12-11T07:21:23.347Z,-0.40
2022-12-11T07:23:52.052Z,-0.40
2022-12-11T07:26:23.532Z,-0.40
2022-12-11T07:28:52.121Z,-0.40
2022-12-11T07:31:23.345Z,-0.40
2022-12-11T07:33:55.053Z,-0.40
2022-12-11T07:36:25.632Z,-0.40
2022-12-11T07:38:55.851Z,-0.40
2022-12-11T07:41:25.091Z,-0.40
2022-12-11T07:43:53.621Z,-0.40
2022-12-11T07:46:24.932Z,-0.40
2022-12-11T07:48:53.461Z,-0.30
2022-12-11T07:51:27.711Z,-0.30
2022-12-11T07:53:57.821Z,-0.30
2022-12-11T07:56:26.509Z,-0.30
2022-12-11T07:58:55.135Z,-0.30
2022-12-11T08:01:26.174Z,-0.30
2022-12-11T08:03:55.983Z,-0.30
2022-12-11T08:06:29.882Z,-0.30
2022-12-11T08:08:59.832Z,-0.30
2022-12-11T08:11:29.021Z,-0.20
2022-12-11T08:13:57.854Z,-0.20
2022-12-11T08:16:26.376Z,-0.20
2022-12-11T08:18:54.953Z,-0.20
2022-12-11T08:21:25.570Z,-0.20
2022-12-11T08:23:56.253Z,-0.20
2022-12-11T08:26:26.507Z,-0.10
2022-12-11T08:28:55.412Z,0.00
2022-12-11T08:31:24.773Z,-0.10
2022-12-11T08:33:54.092Z,0.00
2022-12-11T08:36:24.349Z,0.00
2022-12-11T08:38:55.211Z,0.00
2022-12-11T08:41:25.902Z,0.00
2022-12-11T08:43:55.435Z,-0.10
2022-12-11T08:46:25.458Z,-0.20
2022-12-11T08:48:55.611Z,-0.10
2022-12-11T08:51:26.236Z,-0.10
2022-12-11T08:53:58.665Z,-0.10
2022-12-11T08:56:28.643Z,-0.10
2022-12-11T08:58:57.194Z,0.00
2022-12-11T09:01:27.515Z,0.00
2022-12-11T09:03:57.865Z,0.00
2022-12-11T09:06:28.911Z,-0.10
2022-12-11T09:09:01.344Z,0.00
2022-12-11T09:11:34.023Z,0.00
2022-12-11T09:14:07.198Z,0.10
2022-12-11T09:16:39.942Z,0.10
2022-12-11T09:19:10.492Z,0.20
2022-12-11T09:21:39.181Z,0.20
2022-12-11T09:24:11.603Z,0.40
2022-12-11T09:26:40.831Z,0.50
2022-12-11T09:29:10.428Z,0.70
2022-12-11T09:31:39.632Z,0.80
2022-12-11T09:34:11.566Z,0.80
2022-12-11T09:36:41.847Z,1.00
2022-12-11T09:39:15.142Z,1.30
2022-12-11T09:41:51.058Z,1.40
2022-12-11T09:44:39.386Z,1.30
2022-12-11T09:47:28.112Z,1.30
2022-12-11T09:50:05.812Z,1.30
2022-12-11T09:52:38.391Z,1.30
2022-12-11T09:55:17.076Z,1.30
2022-12-11T09:57:55.462Z,1.30
2022-12-11T10:00:33.338Z,1.30
2022-12-11T10:03:29.649Z,1.20
2022-12-11T10:06:05.297Z,1.20
2022-12-11T10:08:40.661Z,1.00
2022-12-11T10:11:30.181Z,1.00
2022-12-11T10:14:09.072Z,0.80
2022-12-11T10:16:41.762Z,0.70
2022-12-11T10:19:16.242Z,0.60
2022-12-11T10:21:45.682Z,0.60
2022-12-11T10:24:42.220Z,0.60
2022-12-11T10:27:21.614Z,0.60
2022-12-11T10:30:03.612Z,0.70
2022-12-11T10:32:44.351Z,0.60
2022-12-11T10:35:21.363Z,0.70
2022-12-11T10:37:50.476Z,0.70
2022-12-11T10:40:22.664Z,0.80
2022-12-11T10:42:57.512Z,0.90
2022-12-11T10:45:27.141Z,1.10
2022-12-11T10:48:04.842Z,1.20
2022-12-11T10:50:33.403Z,1.20
2022-12-11T10:53:02.522Z,1.10
2022-12-11T10:55:38.503Z,1.10
2022-12-11T10:58:14.073Z,1.00
2022-12-11T11:00:43.242Z,1.00
2022-12-11T11:03:25.152Z,0.90
2022-12-11T11:06:05.147Z,0.90
2022-12-11T11:08:41.962Z,0.90
2022-12-11T11:11:24.410Z,0.90
2022-12-11T11:14:05.822Z,0.90
2022-12-11T11:16:38.362Z,0.90
2022-12-11T11:19:07.731Z,0.90
2022-12-11T11:21:37.173Z,0.90
2022-12-11T11:24:05.992Z,0.90
2022-12-11T11:27:11.211Z,0.90
2022-12-11T11:29:31.372Z,1.00
2022-12-11T11:32:18.082Z,0.90
2022-12-11T11:34:46.651Z,0.90
2022-12-11T11:37:27.333Z,0.90
2022-12-11T11:40:00.551Z,0.80
2022-12-11T11:42:40.124Z,0.80
2022-12-11T11:45:17.612Z,0.80
2022-12-11T11:47:55.625Z,0.80
2022-12-11T11:50:29.873Z,0.80
2022-12-11T11:53:06.165Z,0.80
2022-12-11T11:55:43.983Z,0.80
2022-12-11T11:58:19.424Z,0.80
2022-12-11T12:00:49.342Z,0.90
2022-12-11T12:03:20.583Z,0.90
2022-12-11T12:05:55.614Z,0.90
2022-12-11T12:08:37.342Z,0.90
2022-12-11T12:11:14.520Z,0.90
2022-12-11T12:13:52.524Z,0.90
2022-12-11T12:19:39.244Z,0.90
2022-12-11T12:22:29.284Z,0.90
2022-12-11T12:25:07.281Z,0.90
2022-12-11T12:27:52.110Z,0.90
2022-12-11T12:30:24.035Z,0.90
2022-12-11T12:33:07.461Z,0.90
2022-12-11T12:35:38.553Z,0.90
2022-12-11T12:38:20.437Z,0.90
2022-12-11T12:41:00.021Z,0.90
2022-12-11T12:43:44.055Z,0.90
2022-12-11T12:46:21.013Z,0.90
2022-12-11T12:48:53.691Z,0.90
2022-12-11T12:51:22.751Z,0.90
2022-12-11T12:53:59.315Z,0.80
2022-12-11T12:56:30.562Z,0.80
2022-12-11T12:58:59.481Z,0.80
2022-12-11T13:01:31.909Z,0.80
2022-12-11T13:04:05.864Z,0.80
2022-12-11T13:06:40.044Z,0.80
2022-12-11T13:09:17.123Z,0.80
2022-12-11T13:11:46.541Z,0.80
2022-12-11T13:14:29.844Z,0.90
2022-12-11T13:17:25.674Z,0.90
2022-12-11T13:20:13.992Z,0.90
2022-12-11T13:23:09.212Z,0.90
2022-12-11T13:25:50.669Z,0.80
2022-12-11T13:28:29.751Z,0.80
2022-12-11T13:31:24.539Z,0.80
2022-12-11T13:33:55.963Z,0.70
2022-12-11T13:36:33.231Z,0.70
2022-12-11T13:39:08.041Z,0.60
2022-12-11T13:41:38.939Z,0.60
2022-12-11T13:44:08.522Z,0.50
2022-12-11T13:46:39.442Z,0.50
2022-12-11T13:49:09.928Z,0.50
2022-12-11T13:51:39.892Z,0.40
2022-12-11T13:54:17.547Z,0.40
2022-12-11T13:56:57.761Z,0.40
2022-12-11T13:59:31.682Z,0.40
2022-12-11T14:02:04.889Z,0.30
2022-12-11T14:04:35.632Z,0.30
2022-12-11T14:07:09.600Z,0.30
2022-12-11T14:09:43.912Z,0.30
2022-12-11T14:12:18.751Z,0.20
2022-12-11T14:14:52.245Z,0.20
2022-12-11T14:17:25.763Z,0.20
2022-12-11T14:19:55.862Z,0.20
2022-12-11T14:22:28.351Z,0.10
2022-12-11T14:24:58.692Z,0.10
2022-12-11T14:27:28.932Z,0.00
2022-12-11T14:29:57.733Z,-0.10
2022-12-11T14:32:31.622Z,-0.10
2022-12-11T14:35:01.943Z,-0.20
2022-12-11T14:37:32.770Z,-0.30
2022-12-11T14:40:05.009Z,-0.40
2022-12-11T14:42:40.502Z,-0.50
2022-12-11T14:45:17.881Z,-0.60
2022-12-11T14:47:47.096Z,-0.70
2022-12-11T14:50:22.924Z,-0.80
2022-12-11T14:52:58.671Z,-0.90
2022-12-11T14:55:31.200Z,-0.90
2022-12-11T14:58:03.278Z,-0.90
2022-12-11T15:00:35.890Z,-1.00
2022-12-11T15:03:07.552Z,-1.00
2022-12-11T15:05:41.015Z,-1.00
2022-12-11T15:08:25.181Z,-1.00
2022-12-11T15:11:06.608Z,-1.00
2022-12-11T15:13:37.372Z,-0.90
2022-12-11T15:16:10.323Z,-1.00
2022-12-11T15:18:43.011Z,-1.10
2022-12-11T15:21:13.422Z,-1.20
2022-12-11T15:23:52.664Z,-1.20
2022-12-11T15:26:21.911Z,-1.30
2022-12-11T15:29:02.186Z,-1.30
2022-12-11T15:31:32.610Z,-1.30
2022-12-11T15:34:01.620Z,-1.30
2022-12-11T15:36:35.425Z,-1.30
2022-12-11T15:39:09.114Z,-1.40
2022-12-11T15:41:38.652Z,-1.40
2022-12-11T15:44:23.195Z,-1.40
2022-12-11T15:46:52.503Z,-1.50
2022-12-11T15:49:24.395Z,-1.60
2022-12-11T15:51:54.821Z,-1.60
2022-12-11T15:54:24.952Z,-1.60
2022-12-11T15:56:53.459Z,-1.70
2022-12-11T15:59:22.393Z,-1.60
2022-12-11T16:01:51.903Z,-1.60
2022-12-11T16:04:21.131Z,-1.70
2022-12-11T16:06:50.512Z,-1.70
2022-12-11T16:09:20.137Z,-1.80
2022-12-11T16:11:54.109Z,-1.90
2022-12-11T16:14:23.254Z,-1.90
2022-12-11T16:16:52.226Z,-1.90
2022-12-11T16:19:20.992Z,-1.80
2022-12-11T16:21:50.229Z,-1.90
2022-12-11T16:24:18.967Z,-1.90
2022-12-11T16:26:47.611Z,-1.90
2022-12-11T16:29:18.548Z,-1.90
2022-12-11T16:31:47.585Z,-1.80
2022-12-11T16:34:16.700Z,-1.80
2022-12-11T16:36:46.603Z,-1.90
2022-12-11T16:39:16.001Z,-1.90
2022-12-11T16:41:47.982Z,-2.00
2022-12-11T16:44:22.301Z,-2.00
2022-12-11T16:46:51.942Z,-2.00
2022-12-11T16:49:22.105Z,-2.10
2022-12-11T16:51:51.603Z,-2.10
2022-12-11T16:54:21.125Z,-2.30
2022-12-11T16:56:50.161Z,-2.40
2022-12-11T16:59:21.042Z,-2.40
2022-12-11T17:01:52.162Z,-2.40
2022-12-11T17:04:21.642Z,-2.30
2022-12-11T17:06:50.905Z,-2.30
2022-12-11T17:09:20.172Z,-2.30
2022-12-11T17:11:49.641Z,-2.30
2022-12-11T17:14:20.544Z,-2.30
2022-12-11T17:16:49.382Z,-2.20
2022-12-11T17:19:18.578Z,-2.30
2022-12-11T17:21:51.647Z,-2.50
2022-12-11T17:24:21.074Z,-2.60
2022-12-11T17:26:50.832Z,-2.70
2022-12-11T17:29:22.479Z,-2.80
2022-12-11T17:31:52.407Z,-2.80
2022-12-11T17:34:21.498Z,-2.90
2022-12-11T17:36:51.737Z,-3.00
2022-12-11T17:39:21.332Z,-3.10
2022-12-11T17:41:50.813Z,-3.10
2022-12-11T17:44:21.652Z,-3.10
2022-12-11T17:46:52.929Z,-3.10
2022-12-11T17:49:21.872Z,-3.20
2022-12-11T17:51:53.311Z,-3.20
2022-12-11T17:54:22.783Z,-3.30
2022-12-11T17:56:51.802Z,-3.40
2022-12-11T17:59:22.410Z,-3.40
2022-12-11T18:01:51.437Z,-3.40
2022-12-11T18:04:20.673Z,-3.40
2022-12-11T18:06:49.763Z,-3.50
2022-12-11T18:09:18.982Z,-3.50
2022-12-11T18:11:48.293Z,-3.50
2022-12-11T18:14:17.834Z,-3.40
2022-12-11T18:16:48.664Z,-3.40
2022-12-11T18:19:17.712Z,-3.30
2022-12-11T18:21:50.234Z,-3.30
2022-12-11T18:24:20.123Z,-3.40
2022-12-11T18:26:50.222Z,-3.30
2022-12-11T18:29:19.631Z,-3.30
2022-12-11T18:31:49.850Z,-3.20
2022-12-11T18:34:22.622Z,-3.20
2022-12-11T18:36:52.262Z,-3.00
2022-12-11T18:39:21.516Z,-2.90
2022-12-11T18:42:03.507Z,-2.90
2022-12-11T18:44:39.328Z,-2.90
2022-12-11T18:47:09.971Z,-2.90
2022-12-11T18:49:39.927Z,-3.10
2022-12-11T18:52:10.168Z,-3.20
2022-12-11T18:54:39.262Z,-3.40
2022-12-11T18:57:08.982Z,-3.50
2022-12-11T18:59:39.202Z,-3.70
2022-12-11T19:02:11.771Z,-3.80
2022-12-11T19:04:40.653Z,-3.90
2022-12-11T19:07:10.493Z,-3.90
2022-12-11T19:09:43.512Z,-4.00
2022-12-11T19:12:15.467Z,-4.00
2022-12-11T19:14:45.084Z,-4.00
2022-12-11T19:17:15.582Z,-3.90
2022-12-11T19:19:46.351Z,-3.90
2022-12-11T19:22:15.962Z,-3.80
2022-12-11T19:24:45.181Z,-3.60
2022-12-11T19:27:14.344Z,-3.50
2022-12-11T19:29:42.970Z,-3.50
2022-12-11T19:32:12.109Z,-3.30
2022-12-11T19:34:43.001Z,-3.20
2022-12-11T19:37:16.968Z,-3.20
2022-12-11T19:39:49.461Z,-3.10
2022-12-11T19:42:18.246Z,-3.00
2022-12-11T19:44:46.951Z,-3.10
2022-12-11T19:47:15.896Z,-3.10
2022-12-11T19:49:46.423Z,-3.10
2022-12-11T19:52:15.401Z,-3.20
2022-12-11T19:54:44.688Z,-3.10
2022-12-11T19:57:13.861Z,-3.10
2022-12-11T19:59:42.792Z,-3.20
2022-12-11T20:02:13.122Z,-3.20
2022-12-11T20:04:42.221Z,-3.30
2022-12-11T20:07:13.911Z,-3.40
2022-12-11T20:09:42.797Z,-3.40
2022-12-11T20:12:11.673Z,-3.40
2022-12-11T20:14:41.353Z,-3.50
2022-12-11T20:17:13.509Z,-3.50
2022-12-11T20:19:43.701Z,-3.40
2022-12-11T20:22:13.900Z,-3.30
2022-12-11T20:24:43.062Z,-3.30
2022-12-11T20:27:12.607Z,-3.30
2022-12-11T20:29:44.798Z,-3.20
2022-12-11T20:32:13.574Z,-3.20
2022-12-11T20:34:43.558Z,-3.10
2022-12-11T20:37:14.433Z,-3.00
2022-12-11T20:39:43.982Z,-3.00
2022-12-11T20:42:13.577Z,-3.00
2022-12-11T20:44:48.797Z,-3.00
2022-12-11T20:47:20.292Z,-3.00
2022-12-11T20:49:50.337Z,-3.00
2022-12-11T20:52:21.751Z,-3.10
2022-12-11T20:54:50.945Z,-3.20
2022-12-11T20:57:20.418Z,-3.20
2022-12-11T20:59:50.213Z,-3.20
2022-12-11T21:02:19.248Z,-3.30
2022-12-11T21:04:48.861Z,-3.40
2022-12-11T21:07:18.612Z,-3.60
2022-12-11T21:09:49.255Z,-3.70
2022-12-11T21:12:18.074Z,-3.80
2022-12-11T21:14:47.414Z,-3.90
2022-12-11T21:17:16.882Z,-4.00
2022-12-11T21:19:46.377Z,-4.20
2022-12-11T21:22:15.990Z,-4.20
2022-12-11T21:24:45.552Z,-4.20
2022-12-11T21:27:16.222Z,-4.20
2022-12-11T21:29:46.031Z,-4.20
2022-12-11T21:32:15.363Z,-4.30
2022-12-11T21:34:44.086Z,-4.20
2022-12-11T21:37:12.946Z,-4.20
2022-12-11T21:39:42.539Z,-4.10
2022-12-11T21:42:11.415Z,-4.10
2022-12-11T21:45:37.515Z,-4.10
2022-12-11T21:47:30.712Z,-4.20
2022-12-11T21:50:00.545Z,-4.30
2022-12-11T21:52:30.579Z,-4.30
2022-12-11T21:54:59.679Z,-4.30
2022-12-11T21:57:28.351Z,-4.30
2022-12-11T21:59:58.436Z,-4.30
2022-12-11T22:02:26.933Z,-4.30
2022-12-11T22:04:55.465Z,-4.20
2022-12-11T22:07:23.991Z,-4.20
2022-12-11T22:09:52.458Z,-4.20
2022-12-11T22:12:24.093Z,-4.10
2022-12-11T22:14:52.601Z,-4.10
2022-12-11T22:17:22.671Z,-4.10
2022-12-11T22:19:52.059Z,-4.20
2022-12-11T22:22:20.991Z,-4.20
2022-12-11T22:24:50.882Z,-4.10
2022-12-11T22:27:23.724Z,-4.00
2022-12-11T22:29:52.880Z,-3.90
2022-12-11T22:32:22.769Z,-3.80
2022-12-11T22:34:51.231Z,-3.80
2022-12-11T22:37:19.771Z,-3.70
2022-12-11T22:39:48.312Z,-3.60
2022-12-11T22:42:17.168Z,-3.50
2022-12-11T22:44:45.633Z,-3.40
2022-12-11T22:47:14.133Z,-3.40
2022-12-11T22:49:46.882Z,-3.40
2022-12-11T22:52:15.460Z,-3.40
2022-12-11T22:54:44.401Z,-3.40
2022-12-11T22:57:14.301Z,-3.40
2022-12-11T22:59:42.851Z,-3.40
2022-12-11T23:02:11.459Z,-3.50
2022-12-11T23:04:40.054Z,-3.50
2022-12-11T23:07:10.125Z,-3.50
2022-12-11T23:09:38.776Z,-3.50
2022-12-11T23:12:08.641Z,-3.50
2022-12-11T23:14:37.227Z,-3.60
2022-12-11T23:17:05.804Z,-3.90
2022-12-11T23:19:37.234Z,-4.00
2022-12-11T23:22:07.621Z,-4.10
2022-12-11T23:24:40.288Z,-4.10
2022-12-11T23:27:09.560Z,-4.10
2022-12-11T23:29:38.301Z,-4.00
2022-12-11T23:32:06.946Z,-4.10
2022-12-11T23:34:35.482Z,-4.20
2022-12-11T23:37:04.710Z,-4.10
2022-12-11T23:39:33.511Z,-4.10
2022-12-11T23:42:03.363Z,-4.10
2022-12-11T23:44:31.900Z,-4.20
2022-12-11T23:47:00.751Z,-4.20
2022-12-11T23:49:29.262Z,-4.20
2022-12-11T23:51:57.772Z,-4.10
2022-12-11T23:54:26.333Z,-4.10
2022-12-11T23:56:54.798Z,-4.00
2022-12-11T23:59:24.737Z,-4.00
